Vestmannaeyjar, Vestmannaeyjar Airport (BIVM)

NameVestmannaeyjar Airport
CityVestmannaeyjar
CountryIceland
ICAOBIVM
IATAVEY
Altitude99 m
CoordinatesGoogle Map
Live Air TrafficLiveATC.net
METARBIVM 181600Z 13008KT 9999 BKN025 13/09 Q1001
2019-08-18 16:00:00 Wind: East-Southeast (130°) 4.12 m/s - Visibility: > 10000 m - Temperature: 13 °C - Dew point: 9 °C - Humidity: 76.9% - Pressure: 1001 hPa

Sorry, no flights used the airport in this database.